Terminal Aerodrome Forecast
Issued by NWS

Home | Current Version | Previous Version | Graphics & Text | Print | Product List | Glossary On
Versions: 1 2 3 4 5 6 7 8 9 10 11 12 13
000
FTUS43 KBIS 241700
TAFJMS
TAF
KJMS 241739Z 2418/2518 28011KT P6SM SCT110
     FM242000 29017G25KT P6SM SCT180
     FM250000 29011KT P6SM SCT130=

USA.gov is the U.S. government's official web portal to all federal, state and local government web resources and services.